Time;durP1;ratioP1;P1;durP2;ratioP2;P2;SDS_P1;SDS_P2;PMS_P1;PMS_P2;Temp;Humidity;BMP_temperature;BMP_pressure;BME280_temperature;BME280_humidity;BME280_pressure;Samples;Min_cycle;Max_cycle;Signal;HPM_P1;HPM_P2
2022/12/01 05:20:55;;;;;;;31.98;13.00;;;;;;;-1.24;100.00;101034.72;5555228;32;335896;-84
2022/12/01 05:22:14;;;;;;;29.30;13.30;;;;;;;-1.35;100.00;101032.00;5548296;32;33860;-90
2022/12/01 05:25:18;;;;;;;27.45;13.30;;;;;;;-1.39;100.00;101038.91;5547451;32;33701;-89
2022/12/01 05:28:23;;;;;;;28.27;12.95;;;;;;;-1.42;100.00;101038.88;5552305;32;33867;-88
2022/12/01 05:31:25;;;;;;;28.30;13.52;;;;;;;-1.43;100.00;101037.13;5549995;32;33954;-83
2022/12/01 05:34:29;;;;;;;29.80;14.27;;;;;;;-1.41;100.00;101045.81;5547286;32;33719;-84
2022/12/01 05:37:33;;;;;;;31.92;14.38;;;;;;;-1.39;100.00;101049.34;5548238;32;34346;-84
2022/12/01 05:40:37;;;;;;;27.48;13.85;;;;;;;-1.38;100.00;101042.38;5552743;32;33934;-83
2022/12/01 05:43:39;;;;;;;27.17;14.25;;;;;;;-1.31;100.00;101040.72;5558790;32;36011;-85
2022/12/01 05:46:42;;;;;;;33.95;14.93;;;;;;;-1.37;100.00;101050.22;5547542;32;34742;-85
2022/12/01 05:49:44;;;;;;;31.02;15.55;;;;;;;-1.42;100.00;101038.88;5549952;32;33866;-85
2022/12/01 05:52:48;;;;;;;30.62;15.20;;;;;;;-1.41;100.00;101035.41;5560246;32;34876;-84
2022/12/01 05:55:54;;;;;;;29.15;14.98;;;;;;;-1.28;100.00;101043.34;5559577;32;35075;-84
2022/12/01 05:58:57;;;;;;;33.83;17.62;;;;;;;-1.27;100.00;101047.69;5548582;32;33374;-84
2022/12/01 06:01:59;;;;;;;35.92;18.75;;;;;;;-0.89;100.00;101049.81;5559685;32;34169;-84
2022/12/01 06:05:02;;;;;;;38.83;19.60;;;;;;;-0.78;100.00;101049.00;5549426;32;34159;-84
2022/12/01 06:08:05;;;;;;;43.17;21.02;;;;;;;-0.31;100.00;101052.78;5546952;32;34223;-86
2022/12/01 06:11:08;;;;;;;40.17;22.62;;;;;;;-0.47;100.00;101054.44;5546467;32;32750;-84
2022/12/01 06:14:10;;;;;;;41.55;23.10;;;;;;;-0.39;100.00;101059.72;5546531;32;32384;-84
2022/12/01 06:17:13;;;;;;;47.67;24.42;;;;;;;-0.49;100.00;101053.56;5546928;32;33857;-85
2022/12/01 06:20:15;;;;;;;43.35;23.40;;;;;;;-0.62;100.00;101061.28;5546716;32;34646;-85
2022/12/01 06:23:18;;;;;;;44.75;22.48;;;;;;;-0.66;100.00;101059.50;5546428;32;34229;-84
2022/12/01 06:26:21;;;;;;;48.47;22.62;;;;;;;-0.66;100.00;101061.25;5546083;32;32425;-85
2022/12/01 06:29:24;;;;;;;41.25;22.70;;;;;;;-0.58;100.00;101052.66;5535528;32;34663;-87
2022/12/01 06:32:26;;;;;;;40.33;22.85;;;;;;;-0.52;100.00;101056.16;5529255;32;34041;-85
2022/12/01 06:35:30;;;;;;;43.35;23.98;;;;;;;-0.68;100.00;101063.84;5517179;32;33934;-85
2022/12/01 06:38:34;;;;;;;39.33;23.40;;;;;;;-0.76;100.00;101063.78;5533130;32;34074;-86
2022/12/01 06:41:38;;;;;;;42.42;23.05;;;;;;;-0.76;100.00;101061.19;5532500;32;32756;-86
2022/12/01 06:44:40;;;;;;;38.58;22.13;;;;;;;-0.73;100.00;101052.50;5536279;32;34254;-86
2022/12/01 06:47:43;;;;;;;39.15;21.62;;;;;;;-0.58;100.00;101060.47;5532434;32;32687;-86
2022/12/01 06:50:46;;;;;;;40.50;22.70;;;;;;;-0.58;100.00;101046.53;5530777;32;33958;-85
2022/12/01 06:53:53;;;;;;;38.42;21.67;;;;;;;-0.62;100.00;101052.59;5534526;32;34883;-86
2022/12/01 06:56:58;;;;;;;38.50;21.20;;;;;;;-0.62;100.00;101060.41;5527553;32;34307;-86
2022/12/01 07:00:03;;;;;;;42.50;22.27;;;;;;;-0.68;100.00;101059.53;5517789;32;33800;-88
2022/12/01 07:03:07;;;;;;;39.90;22.62;;;;;;;-0.67;100.00;101065.59;5520388;32;33710;-87
2022/12/01 07:06:10;;;;;;;45.00;23.30;;;;;;;-0.68;100.00;101059.53;5532516;32;32774;-86
2022/12/01 07:09:12;;;;;;;38.33;22.08;;;;;;;-0.66;100.00;101056.91;5523136;32;33610;-86
2022/12/01 07:12:15;;;;;;;47.25;22.50;;;;;;;-0.58;100.00;101059.56;5537335;32;34400;-86
2022/12/01 07:15:18;;;;;;;41.90;21.75;;;;;;;-0.40;100.00;101064.06;5536843;32;35226;-86
2022/12/01 07:18:22;;;;;;;40.67;22.00;;;;;;;-0.37;100.00;101068.41;5529810;32;34129;-87
2022/12/01 07:21:24;;;;;;;40.88;21.33;;;;;;;-0.35;100.00;101066.69;5524171;32;34972;-86
2022/12/01 07:24:28;;;;;;;35.90;20.80;;;;;;;-0.35;100.00;101064.09;5538491;32;34147;-86
2022/12/01 07:27:31;;;;;;;38.72;20.42;;;;;;;-0.31;100.00;101066.72;5533337;32;33876;-86
2022/12/01 07:30:34;;;;;;;34.22;19.10;;;;;;;-0.21;100.00;101066.78;5530057;32;34591;-86
2022/12/01 07:33:37;;;;;;;41.85;19.87;;;;;;;-0.07;100.00;101062.50;5533379;32;33485;-87
2022/12/01 07:36:40;;;;;;;38.78;20.05;;;;;;;0.08;100.00;101066.94;5530705;32;33796;-87
2022/12/01 07:39:43;;;;;;;37.55;20.05;;;;;;;0.05;100.00;101066.06;5528060;32;34024;-91
2022/12/01 07:42:46;;;;;;;43.47;21.65;;;;;;;0.07;100.00;101067.81;5510527;32;32273;-90
2022/12/01 07:45:48;;;;;;;42.33;21.42;;;;;;;0.13;100.00;101064.34;5527068;32;34186;-90
2022/12/01 07:48:54;;;;;;;40.00;21.92;;;;;;;0.26;100.00;101068.75;5531892;32;33181;-90
2022/12/01 07:51:56;;;;;;;44.08;22.70;;;;;;;0.34;100.00;101066.19;5523350;32;34243;-86
2022/12/01 07:54:59;;;;;;;41.97;22.52;;;;;;;0.35;100.00;101069.66;5527995;32;35313;-86
2022/12/01 07:58:02;;;;;;;42.53;23.15;;;;;;;0.44;100.00;101063.63;5528882;32;33578;-86
2022/12/01 08:01:11;;;;;;;44.60;22.60;;;;;;;0.62;100.00;101070.63;5529729;32;34269;-87
2022/12/01 08:04:14;;;;;;;39.83;22.40;;;;;;;0.52;100.00;101065.34;5522105;32;34274;-87
2022/12/01 08:07:17;;;;;;;39.05;21.40;;;;;;;0.62;100.00;101074.13;5537326;32;32471;-88
2022/12/01 08:10:20;;;;;;;39.72;21.70;;;;;;;0.64;100.00;101079.31;5526479;32;33949;-87
2022/12/01 08:13:22;;;;;;;35.72;20.92;;;;;;;0.70;100.00;101081.09;5519114;32;34100;-87
2022/12/01 08:16:25;;;;;;;37.83;19.12;;;;;;;0.71;100.00;101083.72;5523692;32;33739;-86
2022/12/01 08:19:30;;;;;;;42.25;21.30;;;;;;;0.79;100.00;101084.59;5536430;32;34442;-86
2022/12/01 08:22:33;;;;;;;37.35;19.55;;;;;;;0.90;100.00;101076.75;5521473;32;34348;-87
2022/12/01 08:25:36;;;;;;;36.58;20.00;;;;;;;1.11;100.00;101066.34;5534409;32;35845;-87
2022/12/01 08:28:40;;;;;;;35.45;18.80;;;;;;;1.09;100.00;101073.31;5526188;32;32529;-88
2022/12/01 08:31:42;;;;;;;35.58;19.67;;;;;;;1.17;100.00;101069.81;5524380;32;32565;-88
2022/12/01 08:34:45;;;;;;;32.28;18.85;;;;;;;1.14;100.00;101066.34;5533834;32;34896;-87
2022/12/01 08:37:54;;;;;;;36.17;19.95;;;;;;;1.27;100.00;101073.34;5527283;32;33278;-86
2022/12/01 08:41:01;;;;;;;37.10;19.85;;;;;;;1.41;100.00;101073.31;5530321;32;34350;-87
2022/12/01 08:44:03;;;;;;;36.65;19.80;;;;;;;1.53;100.00;101080.28;5512098;32;32355;-87
2022/12/01 08:47:06;;;;;;;39.75;20.67;;;;;;;1.62;100.00;101087.25;5512699;32;34453;-87
2022/12/01 08:50:10;;;;;;;36.78;19.85;;;;;;;1.92;100.00;101087.19;5537434;32;33690;-86
2022/12/01 08:53:12;;;;;;;35.53;19.50;;;;;;;1.97;100.00;101082.81;5527657;32;35371;-89
2022/12/01 08:56:20;;;;;;;35.25;19.85;;;;;;;2.06;100.00;101079.31;5513588;32;34935;-89
2022/12/01 08:59:23;;;;;;;42.33;20.45;;;;;;;2.08;100.00;101083.66;5513055;32;33698;-88
2022/12/01 09:02:26;;;;;;;37.42;19.95;;;;;;;2.14;100.00;101088.88;5515021;32;32534;-89
2022/12/01 09:05:29;;;;;;;37.40;21.50;;;;;;;2.32;100.00;101076.63;5521769;32;34246;-88
2022/12/01 09:08:32;;;;;;;40.65;21.37;;;;;;;2.40;100.00;101069.59;5518700;32;33822;-89
2022/12/01 09:11:36;;;;;;;38.70;21.70;;;;;;;2.77;100.00;101072.88;5511393;32;35064;-89
2022/12/01 09:14:46;;;;;;;33.58;20.42;;;;;;;3.04;100.00;101070.94;5513592;32;34144;-89
2022/12/01 09:17:49;;;;;;;37.88;21.67;;;;;;;4.23;100.00;101068.06;5525455;32;33824;-89
2022/12/01 09:20:52;;;;;;;35.90;20.10;;;;;;;5.32;100.00;101062.12;5530718;32;33114;-89
2022/12/01 09:23:56;;;;;;;36.67;20.65;;;;;;;6.15;100.00;101068.56;5528848;32;34543;-89
2022/12/01 09:26:58;;;;;;;35.47;21.27;;;;;;;7.68;100.00;101065.91;5525077;32;33938;-88
2022/12/01 09:30:01;;;;;;;36.78;21.10;;;;;;;8.68;100.00;101057.84;5529455;32;34752;-89
2022/12/01 09:33:04;;;;;;;38.45;20.95;;;;;;;9.77;75.24;101057.81;5531230;32;34092;-89
2022/12/01 09:36:10;;;;;;;33.60;18.75;;;;;;;10.83;67.30;101053.91;5532732;32;33897;-89
2022/12/01 09:39:15;;;;;;;28.87;18.42;;;;;;;12.23;60.51;101048.00;5529187;32;33389;-89
2022/12/01 09:42:26;;;;;;;33.53;19.45;;;;;;;13.72;55.00;101055.94;5524866;32;35070;-92
2022/12/01 09:45:41;;;;;;;37.28;19.23;;;;;;;13.75;53.98;101057.56;5530585;32;32850;-89
2022/12/01 09:48:46;;;;;;;31.02;18.67;;;;;;;14.24;51.51;101058.56;5522548;32;33790;-89
2022/12/01 09:51:51;;;;;;;32.15;18.75;;;;;;;14.19;50.63;101048.16;5525740;32;34171;-88
2022/12/01 09:54:56;;;;;;;34.40;20.05;;;;;;;12.70;56.17;101047.63;5535168;32;34485;-87
2022/12/01 09:58:02;;;;;;;28.25;17.42;;;;;;;11.23;58.35;101048.78;5538671;32;33692;-88
2022/12/01 10:01:04;;;;;;;29.95;18.85;;;;;;;10.14;63.14;101052.09;5550239;32;34387;-88
2022/12/01 10:04:22;;;;;;;28.33;18.30;;;;;;;9.09;67.24;101041.56;5539788;32;34063;-88
2022/12/01 10:07:32;;;;;;;29.37;17.42;;;;;;;8.58;72.25;101038.75;5524223;32;34182;-88
2022/12/01 10:10:41;;;;;;;25.30;16.75;;;;;;;8.59;70.92;101041.34;5512870;32;34111;-88
2022/12/01 10:13:44;;;;;;;23.65;16.17;;;;;;;8.43;69.89;101032.12;5521302;32;33466;-88
2022/12/01 10:17:10;;;;;;;26.42;16.77;;;;;;;8.33;71.62;101028.88;5526559;32;34340;-88
2022/12/01 10:20:33;;;;;;;28.27;15.70;;;;;;;7.81;71.56;101032.97;5529969;32;33965;-88
2022/12/01 10:23:49;;;;;;;31.50;17.58;;;;;;;7.48;76.37;101030.34;5530326;32;33588;-87
2022/12/01 10:27:25;;;;;;;23.30;14.80;;;;;;;7.11;76.18;101026.91;5525377;32;33172;-87
2022/12/01 10:30:28;;;;;;;22.73;13.30;;;;;;;7.41;74.95;101026.16;5511654;32;33946;-88
2022/12/01 10:34:29;;;;;;;21.75;13.57;;;;;;;7.54;73.62;101022.28;5510382;32;33093;-89
2022/12/01 10:37:57;;;;;;;25.10;15.15;;;;;;;7.45;72.29;101017.25;5461495;32;34846;-89
2022/12/01 10:41:02;;;;;;;24.80;15.25;;;;;;;7.23;74.18;101007.22;5472626;32;34152;-89
2022/12/01 10:44:07;;;;;;;23.08;14.70;;;;;;;7.13;73.95;101014.53;5474947;32;33758;-88
2022/12/01 10:47:22;;;;;;;25.23;14.90;;;;;;;7.25;73.60;101008.06;5481662;32;33838;-87
2022/12/01 10:50:27;;;;;;;28.95;16.27;;;;;;;7.33;73.92;101007.00;5468541;32;33911;-89
2022/12/01 10:53:32;;;;;;;25.67;15.38;;;;;;;7.30;72.77;101007.97;5481288;32;33589;-88
2022/12/01 10:56:42;;;;;;;22.02;14.73;;;;;;;7.55;74.79;101002.87;5464836;32;33969;-87
2022/12/01 11:00:00;;;;;;;26.27;14.48;;;;;;;8.09;73.59;101007.56;5478445;32;33739;-89
2022/12/01 11:03:20;;;;;;;25.50;15.27;;;;;;;7.90;69.26;100996.66;5472972;32;35091;-91
2022/12/01 11:06:26;;;;;;;23.08;14.55;;;;;;;7.04;73.09;101000.69;5490006;32;34902;-90
2022/12/01 11:09:30;;;;;;;21.75;14.27;;;;;;;8.30;71.16;100994.62;5537011;32;33025;-89
2022/12/01 11:12:33;;;;;;;19.77;13.40;;;;;;;9.31;64.76;101002.03;5530390;32;33919;-89
2022/12/01 11:15:52;;;;;;;23.08;14.50;;;;;;;8.14;67.91;100992.44;5532704;32;34034;-89
2022/12/01 11:19:17;;;;;;;22.20;13.62;;;;;;;8.12;69.53;100988.09;5539626;32;33641;-89
2022/12/01 11:22:30;;;;;;;22.83;14.65;;;;;;;8.23;70.61;100981.59;5550417;32;35762;-89
2022/12/01 11:25:33;;;;;;;23.10;15.45;;;;;;;8.18;70.41;100980.00;5540353;32;33447;-89
2022/12/01 11:28:41;;;;;;;22.42;14.45;;;;;;;9.66;63.49;100976.06;5530077;32;32311;-89
2022/12/01 11:31:48;;;;;;;20.95;13.35;;;;;;;9.64;62.07;100985.84;5525698;32;34200;-89
2022/12/01 11:35:00;;;;;;;21.50;13.80;;;;;;;7.90;69.29;100979.03;5541492;31;34127;-89
2022/12/01 11:38:06;;;;;;;20.30;13.22;;;;;;;7.10;72.66;100974.16;5552630;32;34108;-89
2022/12/01 11:41:31;;;;;;;21.62;13.05;;;;;;;6.61;76.58;100969.19;5555489;32;34242;-88
2022/12/01 11:44:34;;;;;;;20.55;13.38;;;;;;;6.68;77.59;100970.78;5538284;32;35029;-88
2022/12/01 11:48:05;;;;;;;20.23;13.13;;;;;;;6.68;77.58;100967.28;5526480;32;33884;-89
2022/12/01 11:51:37;;;;;;;23.33;13.43;;;;;;;6.80;77.54;100966.09;5530315;32;32680;-90
2022/12/01 11:54:54;;;;;;;20.50;13.05;;;;;;;6.80;77.18;100960.84;5532906;32;33938;-89
2022/12/01 11:58:02;;;;;;;22.42;13.45;;;;;;;6.63;78.55;100950.69;5528284;32;34052;-89
2022/12/01 12:01:17;;;;;;;21.30;12.88;;;;;;;6.94;76.97;100961.34;5535695;32;35082;-90
2022/12/01 12:04:45;;;;;;;19.67;12.45;;;;;;;6.99;77.38;100959.47;5532903;32;33829;-89
2022/12/01 12:08:00;;;;;;;18.77;12.07;;;;;;;6.84;76.15;100962.50;5526632;32;33739;-89
2022/12/01 12:11:19;;;;;;;18.90;11.73;;;;;;;6.92;76.65;100955.25;5525537;32;34330;-88
2022/12/01 12:14:47;;;;;;;20.90;12.80;;;;;;;6.44;79.15;100962.53;5530197;32;33788;-89
2022/12/01 12:17:57;;;;;;;20.75;11.85;;;;;;;6.28;80.48;100951.47;5527312;32;34697;-93
2022/12/01 12:21:28;;;;;;;23.08;12.00;;;;;;;6.54;78.04;100949.16;5532091;32;33308;-89
2022/12/01 12:24:40;;;;;;;18.98;11.77;;;;;;;6.47;79.52;100951.94;5511515;32;34289;-88
2022/12/01 12:28:27;;;;;;;16.33;10.88;;;;;;;6.41;79.32;100959.09;5530782;32;34087;-88
2022/12/01 12:31:37;;;;;;;18.02;11.27;;;;;;;6.30;80.05;100948.81;5522813;32;33525;-88
2022/12/01 12:34:51;;;;;;;18.30;11.63;;;;;;;6.41;79.93;100948.56;5536290;32;32522;-88
2022/12/01 12:38:07;;;;;;;21.35;11.60;;;;;;;6.38;79.44;100949.50;5562312;26;34010;-89
2022/12/01 12:41:29;;;;;;;16.67;11.12;;;;;;;6.19;79.98;100951.69;5559986;32;32779;-88
2022/12/01 12:45:01;;;;;;;20.00;11.93;;;;;;;6.31;80.00;100947.91;5544204;32;33839;-89
2022/12/01 12:48:16;;;;;;;18.87;11.57;;;;;;;6.36;80.50;100950.44;5529643;32;34924;-90
2022/12/01 12:51:33;;;;;;;19.25;11.30;;;;;;;6.26;80.33;100948.03;5546250;32;34749;-89
2022/12/01 12:54:45;;;;;;;19.02;11.20;;;;;;;6.08;80.99;100951.91;5555322;32;33757;-89
2022/12/01 12:57:54;;;;;;;18.40;11.25;;;;;;;6.33;80.14;100946.09;5550825;32;31745;-89
2022/12/01 13:01:02;;;;;;;18.02;10.98;;;;;;;6.30;80.51;100946.19;5555385;32;32764;-89
2022/12/01 13:04:21;;;;;;;17.92;11.18;;;;;;;6.34;79.94;100950.50;5564206;32;34290;-89
2022/12/01 13:07:46;;;;;;;18.37;11.02;;;;;;;6.12;80.77;100950.06;5586457;26;35129;-89
2022/12/01 13:11:01;;;;;;;21.98;13.10;;;;;;;5.96;82.12;100949.50;5556801;32;33936;-88
2022/12/01 13:14:14;;;;;;;18.17;11.02;;;;;;;5.83;82.43;100944.50;5550268;32;32281;-88
2022/12/01 13:17:37;;;;;;;17.77;10.98;;;;;;;6.02;82.93;100945.03;5557028;32;34783;-88
2022/12/01 13:20:40;;;;;;;18.17;10.82;;;;;;;5.71;83.71;100943.00;5550454;32;34756;-91
2022/12/01 13:23:45;;;;;;;19.10;10.82;;;;;;;5.64;84.26;100936.13;5548458;32;33359;-88
2022/12/01 13:27:06;;;;;;;15.85;10.60;;;;;;;5.67;84.13;100933.41;5550029;32;32743;-88
2022/12/01 13:30:18;;;;;;;17.73;10.70;;;;;;;5.71;84.50;100934.22;5548091;32;33549;-87
2022/12/01 13:33:21;;;;;;;18.08;10.82;;;;;;;5.86;83.55;100941.81;5548916;32;33164;-87
2022/12/01 13:36:25;;;;;;;18.75;11.45;;;;;;;5.87;82.80;100938.28;5549900;32;33694;-88
2022/12/01 13:39:53;;;;;;;18.20;11.00;;;;;;;5.90;83.25;100935.56;5553604;32;33881;-87
2022/12/01 13:43:01;;;;;;;19.10;10.68;;;;;;;5.93;83.28;100943.41;5556421;32;33894;-87
2022/12/01 13:46:24;;;;;;;18.75;10.70;;;;;;;5.82;83.57;100939.28;5550108;32;34127;-87
2022/12/01 13:49:46;;;;;;;17.87;10.50;;;;;;;5.88;82.61;100942.63;5549904;32;33872;-87
2022/12/01 13:52:49;;;;;;;;;;;;;;;5.82;83.42;100937.50;5550243;32;33143;-87
2022/12/01 13:55:54;;;;;;;17.62;10.60;;;;;;;5.67;84.26;100936.06;5551439;32;34748;-87
2022/12/01 13:58:57;;;;;;;19.45;11.40;;;;;;;5.63;85.47;100940.50;5562392;32;34057;-88
2022/12/01 14:02:14;;;;;;;18.58;11.05;;;;;;;5.64;85.72;100936.97;5570080;32;35045;-89
2022/12/01 14:05:23;;;;;;;19.62;11.02;;;;;;;5.47;86.46;100933.81;5560197;32;34968;-88
2022/12/01 14:08:28;;;;;;;17.65;11.27;;;;;;;5.46;87.11;100934.72;5553005;32;33729;-91
2022/12/01 14:11:33;;;;;;;21.50;12.32;;;;;;;5.39;87.17;100937.47;5547082;32;34320;-88
2022/12/01 14:14:43;;;;;;;17.23;10.85;;;;;;;5.35;87.37;100933.19;5552785;32;33983;-88
2022/12/01 14:17:46;;;;;;;19.42;11.48;;;;;;;5.35;87.69;100927.91;5559723;32;32609;-87
2022/12/01 14:20:49;;;;;;;18.73;11.35;;;;;;;5.36;87.59;100931.41;5556633;32;34391;-88
2022/12/01 14:24:01;;;;;;;18.55;11.27;;;;;;;5.24;88.17;100925.47;5565080;32;34822;-88
2022/12/01 14:27:05;;;;;;;18.05;11.40;;;;;;;5.22;89.45;100929.00;5550735;32;36327;-88
2022/12/01 14:30:38;;;;;;;22.42;11.63;;;;;;;5.18;89.31;100927.34;5549502;32;34425;-88
2022/12/01 14:33:51;;;;;;;19.87;10.90;;;;;;;5.15;89.65;100924.75;5532210;32;34499;-87
2022/12/01 14:37:02;;;;;;;16.50;10.63;;;;;;;5.07;89.58;100924.91;5564137;32;33878;-88
2022/12/01 14:40:12;;;;;;;19.05;11.12;;;;;;;5.04;90.04;100923.22;5540505;32;34179;-87
2022/12/01 14:46:40;;;;;;;18.70;11.00;;;;;;;4.98;90.69;100934.69;5564376;32;33637;-88
2022/12/01 14:49:58;;;;;;;16.27;10.25;;;;;;;4.92;90.48;100926.91;5552103;32;35075;-88
2022/12/01 14:53:27;;;;;;;21.15;11.82;;;;;;;4.85;91.04;100926.16;5552275;32;33583;-87
2022/12/01 14:56:31;;;;;;;18.98;11.85;;;;;;;4.92;93.59;100928.69;5552224;32;33453;-87
2022/12/01 14:59:35;;;;;;;18.30;11.32;;;;;;;4.84;93.80;100932.28;5540988;32;33366;-88
2022/12/01 15:02:42;;;;;;;18.17;10.93;;;;;;;4.79;94.50;100928.91;5553191;32;34421;-88
2022/12/01 15:05:45;;;;;;;20.88;11.50;;;;;;;4.68;95.99;100936.09;5550277;32;33973;-88
2022/12/01 15:09:07;;;;;;;21.35;11.90;;;;;;;4.54;97.21;100936.31;5550312;32;34146;-88
2022/12/01 15:12:30;;;;;;;18.35;11.63;;;;;;;4.42;98.26;100932.97;5549372;32;32896;-89
2022/12/01 15:15:33;;;;;;;19.65;11.55;;;;;;;4.32;99.87;100932.25;5550904;32;34210;-88
2022/12/01 15:18:36;;;;;;;22.52;11.70;;;;;;;4.26;100.00;100934.06;5561744;32;34493;-88
2022/12/01 15:21:38;;;;;;;24.70;11.65;;;;;;;4.26;99.87;100939.34;5552184;32;34558;-88
2022/12/01 15:24:42;;;;;;;22.50;10.77;;;;;;;4.18;99.31;100937.69;5552093;32;33923;-87
2022/12/01 15:27:45;;;;;;;19.87;11.20;;;;;;;4.20;98.37;100939.41;5555529;32;33931;-87
2022/12/01 15:30:53;;;;;;;18.45;10.90;;;;;;;4.15;99.60;100936.88;5559690;32;33137;-87
2022/12/01 15:33:56;;;;;;;17.98;11.57;;;;;;;4.12;99.76;100937.78;5555872;32;34011;-86
2022/12/01 15:37:03;;;;;;;22.23;11.55;;;;;;;4.11;100.00;100935.16;5560081;32;33857;-86
2022/12/01 15:40:11;;;;;;;22.83;10.98;;;;;;;4.16;99.02;100935.97;5552313;32;33315;-86
2022/12/01 15:43:37;;;;;;;22.60;11.77;;;;;;;4.13;98.57;100934.25;5562373;32;34387;-86
2022/12/01 15:46:40;;;;;;;19.05;10.77;;;;;;;4.11;99.63;100932.53;5559746;32;34737;-87
2022/12/01 15:49:48;;;;;;;19.20;11.60;;;;;;;4.00;100.00;100938.81;5552206;32;32933;-86
2022/12/01 15:52:51;;;;;;;22.92;11.80;;;;;;;3.93;100.00;100937.16;5561655;32;33521;-86
2022/12/01 15:55:55;;;;;;;24.63;13.05;;;;;;;3.84;100.00;100940.78;5564389;32;34465;-86
2022/12/01 15:59:10;;;;;;;24.95;11.93;;;;;;;3.77;100.00;100945.22;5552189;32;32543;-90
2022/12/01 16:02:19;;;;;;;20.75;12.07;;;;;;;3.72;100.00;100935.69;5566167;32;33151;-87
2022/12/01 16:05:34;;;;;;;23.08;12.57;;;;;;;3.67;100.00;100933.09;5575373;32;33920;-86
2022/12/01 16:08:36;;;;;;;21.80;11.68;;;;;;;3.63;100.00;100940.12;5570764;32;34915;-86
2022/12/01 16:11:39;;;;;;;22.60;12.10;;;;;;;3.61;100.00;100943.66;5567879;32;33588;-86
2022/12/01 16:15:01;;;;;;;22.23;12.32;;;;;;;3.60;100.00;100947.19;5568831;32;34564;-87
2022/12/01 16:18:27;;;;;;;23.27;11.98;;;;;;;3.53;100.00;100946.41;5569878;32;34001;-86
2022/12/01 16:21:40;;;;;;;20.48;11.38;;;;;;;3.46;100.00;100942.06;5569397;32;33936;-86
2022/12/01 16:24:52;;;;;;;20.95;11.65;;;;;;;3.44;100.00;100939.50;5569693;32;33928;-86
2022/12/01 16:27:56;;;;;;;24.92;12.73;;;;;;;3.40;100.00;100943.03;5572596;32;34562;-86
2022/12/01 16:30:59;;;;;;;22.73;12.43;;;;;;;3.38;100.00;100942.19;5571734;32;33702;-86
2022/12/01 16:34:02;;;;;;;22.58;13.07;;;;;;;3.37;100.00;100932.59;5569184;32;34872;-86
2022/12/01 16:37:26;;;;;;;25.15;13.48;;;;;;;3.35;100.00;100936.97;5569407;32;34310;-86
2022/12/01 16:40:29;;;;;;;23.12;12.63;;;;;;;3.37;100.00;100945.69;5568522;32;34947;-86
2022/12/01 16:43:38;;;;;;;26.15;13.13;;;;;;;3.33;100.00;100934.34;5568800;32;33569;-86
2022/12/01 16:47:16;;;;;;;23.55;13.20;;;;;;;3.32;100.00;100943.09;5569143;32;33889;-87
2022/12/01 16:50:21;;;;;;;20.67;12.75;;;;;;;3.22;100.00;100942.31;5572428;32;34515;-87
2022/12/01 16:53:23;;;;;;;21.10;13.18;;;;;;;3.16;100.00;100950.25;5581421;32;33897;-87
2022/12/01 16:56:26;;;;;;;23.75;13.00;;;;;;;3.10;100.00;100950.31;5570157;32;35194;-87
